Adams, North Dakota
Current Conditions -  °F | °C
As of 6:35 AM on Wednesday 26 Nov 2014 (Local Time) from KD55 Reporting Station
Overcast Overcast  
Wind Chill: -18°   Ceiling: 5000
Heat Index:   Visibility: 10mi
Dew Point: -8°   Wind: 13mph
Humidity: 72%   Direction: 10°N
Pressure: 30.3"   Gusts: NA
Location:  48.42°N, 98.08°W
Report Text: KD55 261235Z AUTO 01011KT 10SM FEW001 SCT044 OVC050 M18/M22 A3030 RMK AO2
Loading
Personal Weather Stations






























Interactive Weather Map New forecast layout! Learn more

10-Day Weather Forecast

Advertisements
Track Severe Weather on mobile